createdAt,value
2022-09-29T00:00:53.690Z,96468.21
2022-09-29T00:03:35.142Z,96477.92
2022-09-29T00:06:12.292Z,96478.54
2022-09-29T00:08:44.144Z,96479.83
2022-09-29T00:11:17.714Z,96484.29
2022-09-29T00:13:50.107Z,96488.02
2022-09-29T00:16:21.581Z,96484.98
2022-09-29T00:18:54.671Z,96488.70
2022-09-29T00:21:26.576Z,96491.35
2022-09-29T00:23:58.050Z,96485.33
2022-09-29T00:26:29.493Z,96486.95
2022-09-29T00:29:01.758Z,96490.63
2022-09-29T00:31:34.808Z,96484.00
2022-09-29T00:34:06.370Z,96481.79
2022-09-29T00:36:36.420Z,96476.06
2022-09-29T00:39:07.934Z,96473.68
2022-09-29T00:41:39.267Z,96473.53
2022-09-29T00:44:41.514Z,96471.66
2022-09-29T00:47:18.927Z,96473.31
2022-09-29T00:49:57.028Z,96481.96
2022-09-29T00:52:33.195Z,96495.73
2022-09-29T00:55:08.739Z,96500.46
2022-09-29T00:57:47.361Z,96504.27
2022-09-29T01:00:19.327Z,96506.98
2022-09-29T01:02:53.906Z,96509.81
2022-09-29T01:05:29.744Z,96513.29
2022-09-29T01:08:10.293Z,96516.09
2022-09-29T01:10:44.369Z,96511.48
2022-09-29T01:13:16.039Z,96514.11
2022-09-29T01:15:47.833Z,96520.89
2022-09-29T01:18:19.402Z,96522.10
2022-09-29T01:20:52.851Z,96520.70
2022-09-29T01:24:09.381Z,96523.56
2022-09-29T01:26:59.659Z,96524.73
2022-09-29T01:29:50.373Z,96526.96
2022-09-29T01:32:30.479Z,96532.83
2022-09-29T01:35:10.042Z,96532.62
2022-09-29T01:37:59.188Z,96533.86
2022-09-29T01:40:38.129Z,96538.13
2022-09-29T01:43:17.172Z,96535.80
2022-09-29T01:45:54.825Z,96532.91
2022-09-29T01:48:32.343Z,96535.64
2022-09-29T01:51:10.058Z,96539.89
2022-09-29T01:53:46.868Z,96546.05
2022-09-29T01:56:25.350Z,96543.45
2022-09-29T01:59:01.871Z,96537.77
2022-09-29T02:01:40.122Z,96540.94
2022-09-29T02:04:17.286Z,96534.87
2022-09-29T02:06:57.727Z,96535.55
2022-09-29T02:09:35.259Z,96535.86
2022-09-29T02:12:08.842Z,96536.41
2022-09-29T02:14:44.063Z,96530.61
2022-09-29T02:17:20.999Z,96529.61
2022-09-29T02:19:53.847Z,96542.15
2022-09-29T02:22:25.560Z,96546.38
2022-09-29T02:25:00.112Z,96548.46
2022-09-29T02:27:33.887Z,96546.64
2022-09-29T02:30:07.357Z,96547.68
2022-09-29T02:32:39.088Z,96554.21
2022-09-29T02:35:14.337Z,96557.95
2022-09-29T02:37:55.597Z,96560.06
2022-09-29T02:40:38.031Z,96553.14
2022-09-29T02:43:21.819Z,96553.86
2022-09-29T02:46:08.891Z,96549.25
2022-09-29T02:48:56.164Z,96550.66
2022-09-29T02:51:32.289Z,96563.72
2022-09-29T02:54:15.622Z,96567.23
2022-09-29T02:56:55.258Z,96556.56
2022-09-29T02:59:32.064Z,96545.48
2022-09-29T03:02:03.483Z,96540.86
2022-09-29T03:04:33.561Z,96544.37
2022-09-29T03:07:05.019Z,96550.12
2022-09-29T03:09:36.763Z,96550.17
2022-09-29T03:12:08.442Z,96544.92
2022-09-29T03:14:39.875Z,96546.80
2022-09-29T03:17:11.341Z,96546.02
2022-09-29T03:19:42.961Z,96548.24
2022-09-29T03:22:12.946Z,96543.58
2022-09-29T03:24:44.501Z,96541.20
2022-09-29T03:27:14.673Z,96542.48
2022-09-29T03:29:46.197Z,96532.98
2022-09-29T03:32:17.641Z,96530.73
2022-09-29T03:34:47.617Z,96534.52
2022-09-29T03:37:19.079Z,96533.84
2022-09-29T03:39:50.540Z,96532.64
2022-09-29T03:42:24.103Z,96530.14
2022-09-29T03:44:55.742Z,96540.73
2022-09-29T03:47:27.565Z,96538.54
2022-09-29T03:49:57.537Z,96536.70
2022-09-29T03:52:28.980Z,96540.20
2022-09-29T03:55:00.465Z,96546.61
2022-09-29T03:57:31.983Z,96546.52
2022-09-29T04:00:02.151Z,96551.64
2022-09-29T04:02:39.645Z,96555.17
2022-09-29T04:05:11.410Z,96552.42
2022-09-29T04:07:42.857Z,96556.54
2022-09-29T04:10:14.355Z,96558.80
2022-09-29T04:12:45.789Z,96555.94
2022-09-29T04:15:15.808Z,96560.44
2022-09-29T04:17:47.229Z,96565.61
2022-09-29T04:20:18.782Z,96571.46
2022-09-29T04:22:48.754Z,96576.63
2022-09-29T04:25:20.400Z,96581.95
2022-09-29T04:27:51.856Z,96581.37
2022-09-29T04:30:23.315Z,96582.95
2022-09-29T04:32:54.793Z,96583.66
2022-09-29T04:35:26.400Z,96587.02
2022-09-29T04:37:58.487Z,96589.48
2022-09-29T04:40:30.000Z,96585.23
2022-09-29T04:43:00.029Z,96590.48
2022-09-29T04:45:32.373Z,96594.37
2022-09-29T04:48:04.284Z,96597.56
2022-09-29T04:50:36.162Z,96596.42
2022-09-29T04:53:07.622Z,96598.15
2022-09-29T04:55:41.736Z,96599.58
2022-09-29T04:58:13.906Z,96601.00
2022-09-29T05:00:45.577Z,96602.02
2022-09-29T05:03:15.618Z,96599.09
2022-09-29T05:05:47.110Z,96597.45
2022-09-29T05:08:17.247Z,96603.23
2022-09-29T05:10:51.204Z,96614.19
2022-09-29T05:13:22.701Z,96617.80
2022-09-29T05:15:58.003Z,96616.59
2022-09-29T05:18:29.615Z,96622.02
2022-09-29T05:21:25.981Z,96618.77
2022-09-29T05:23:54.915Z,96624.19
2022-09-29T05:26:26.821Z,96623.50
2022-09-29T05:28:58.252Z,96616.20
2022-09-29T05:31:30.074Z,96618.70
2022-09-29T05:34:01.708Z,96617.47
2022-09-29T05:36:31.699Z,96624.08
2022-09-29T05:39:03.445Z,96629.23
2022-09-29T05:41:35.849Z,96634.73
2022-09-29T05:44:07.722Z,96641.31
2022-09-29T05:46:39.744Z,96637.71
2022-09-29T05:49:11.281Z,96633.52
2022-09-29T05:51:41.290Z,96623.95
2022-09-29T05:54:12.835Z,96624.17
2022-09-29T05:56:45.352Z,96627.50
2022-09-29T05:59:17.329Z,96625.64
2022-09-29T06:01:48.883Z,96627.63
2022-09-29T06:04:19.137Z,96621.41
2022-09-29T06:06:50.568Z,96614.23
2022-09-29T06:09:22.116Z,96612.05
2022-09-29T06:11:52.193Z,96606.80
2022-09-29T06:14:24.014Z,96608.23
2022-09-29T06:16:56.088Z,96606.06
2022-09-29T06:19:27.595Z,96608.98
2022-09-29T06:21:59.270Z,96606.27
2022-09-29T06:24:30.872Z,96606.14
2022-09-29T06:27:02.333Z,96607.21
2022-09-29T06:29:34.001Z,96611.40
2022-09-29T06:32:06.141Z,96617.73
2022-09-29T06:34:58.796Z,96627.16
2022-09-29T06:37:36.730Z,96629.26
2022-09-29T06:40:11.969Z,96631.45
2022-09-29T06:42:43.432Z,96634.30
2022-09-29T06:45:16.634Z,96638.43
2022-09-29T06:47:50.878Z,96640.75
2022-09-29T06:50:20.916Z,96646.14
2022-09-29T06:53:03.131Z,96644.80
2022-09-29T06:55:36.053Z,96640.83
2022-09-29T06:58:06.079Z,96641.61
2022-09-29T07:00:39.061Z,96639.56
2022-09-29T07:03:10.956Z,96641.40
2022-09-29T07:05:49.181Z,96646.34
2022-09-29T07:08:28.911Z,96645.88
2022-09-29T07:11:00.375Z,96643.66
2022-09-29T07:13:30.462Z,96641.04
2022-09-29T07:16:08.739Z,96643.87
2022-09-29T07:18:42.091Z,96647.74
2022-09-29T07:21:17.775Z,96650.63
2022-09-29T07:23:49.501Z,96660.54
2022-09-29T07:26:20.966Z,96664.45
2022-09-29T07:28:51.013Z,96667.34
2022-09-29T07:31:23.566Z,96661.47
2022-09-29T07:33:55.234Z,96653.31
2022-09-29T07:36:26.909Z,96651.39
2022-09-29T07:38:56.920Z,96655.02
2022-09-29T07:41:28.397Z,96652.46
2022-09-29T07:43:58.388Z,96660.14
2022-09-29T07:46:29.920Z,96666.48
2022-09-29T07:49:01.437Z,96664.09
2022-09-29T07:51:32.378Z,96665.20
2022-09-29T07:54:05.994Z,96665.29
2022-09-29T07:56:37.469Z,96671.17
2022-09-29T07:59:07.529Z,96673.48
2022-09-29T08:01:39.031Z,96681.35
2022-09-29T08:04:08.992Z,96683.23
2022-09-29T08:06:42.182Z,96683.23
2022-09-29T08:09:13.681Z,96679.66
2022-09-29T08:11:44.165Z,96681.50
2022-09-29T08:14:15.709Z,96682.81
2022-09-29T08:16:47.426Z,96682.19
2022-09-29T08:19:18.949Z,96681.83
2022-09-29T08:21:49.844Z,96686.97
2022-09-29T08:24:21.491Z,96692.11
2022-09-29T08:26:53.107Z,96697.02
2022-09-29T08:29:23.259Z,96699.45
2022-09-29T08:31:56.224Z,96702.13
2022-09-29T08:34:27.798Z,96703.28
2022-09-29T08:36:57.890Z,96711.10
2022-09-29T08:39:29.427Z,96712.96
2022-09-29T08:42:04.202Z,96715.63
2022-09-29T08:44:41.487Z,96717.33
2022-09-29T08:47:22.901Z,96719.02
2022-09-29T08:49:58.113Z,96719.27
2022-09-29T08:52:45.360Z,96718.18
2022-09-29T08:55:35.148Z,96721.20
2022-09-29T08:58:10.302Z,96728.50
2022-09-29T09:00:49.045Z,96730.75
2022-09-29T09:03:50.099Z,96732.27
2022-09-29T09:06:32.189Z,96738.51
2022-09-29T09:09:18.446Z,96743.52
2022-09-29T09:12:02.186Z,96741.40
2022-09-29T09:14:51.115Z,96743.10
2022-09-29T09:17:32.463Z,96742.15
2022-09-29T09:20:25.197Z,96742.06
2022-09-29T09:22:59.546Z,96745.17
2022-09-29T09:25:33.657Z,96737.19
2022-09-29T09:28:16.695Z,96737.52
2022-09-29T09:30:54.593Z,96734.63
2022-09-29T09:33:32.946Z,96736.41
2022-09-29T09:36:09.882Z,96741.66
2022-09-29T09:38:49.857Z,96738.67
2022-09-29T09:41:23.673Z,96740.24
2022-09-29T09:43:58.876Z,96744.71
2022-09-29T09:46:34.925Z,96744.27
2022-09-29T09:49:18.561Z,96753.36
2022-09-29T09:51:55.709Z,96752.77
2022-09-29T09:54:32.446Z,96749.59
2022-09-29T09:57:28.992Z,96752.90
2022-09-29T10:00:10.529Z,96757.98
2022-09-29T10:02:47.360Z,96762.27
2022-09-29T10:05:21.294Z,96763.77
2022-09-29T10:07:53.651Z,96764.89
2022-09-29T10:10:27.505Z,96768.85
2022-09-29T10:13:04.261Z,96764.84
2022-09-29T10:15:41.581Z,96766.30
2022-09-29T10:18:18.530Z,96762.91
2022-09-29T10:20:50.178Z,96760.20
2022-09-29T10:23:30.456Z,96764.48
2022-09-29T10:26:08.530Z,96758.29
2022-09-29T10:28:51.442Z,96758.16
2022-09-29T10:31:27.535Z,96755.51
2022-09-29T10:34:02.458Z,96761.23
2022-09-29T10:36:53.114Z,96761.32
2022-09-29T10:39:39.034Z,96763.67
2022-09-29T10:42:24.517Z,96764.98
2022-09-29T10:45:03.471Z,96765.64
2022-09-29T10:47:35.150Z,96762.60
2022-09-29T10:50:16.930Z,96765.23
2022-09-29T10:52:53.761Z,96768.31
2022-09-29T10:55:27.870Z,96767.92
2022-09-29T10:58:01.688Z,96763.80
2022-09-29T11:00:36.466Z,96761.70
2022-09-29T11:03:18.223Z,96763.77
2022-09-29T11:05:54.168Z,96770.80
2022-09-29T11:08:27.814Z,96773.23
2022-09-29T11:11:10.073Z,96776.13
2022-09-29T11:13:43.125Z,96781.20
2022-09-29T11:16:19.150Z,96776.90
2022-09-29T11:18:53.676Z,96781.23
2022-09-29T11:21:58.218Z,96783.17
2022-09-29T11:24:42.197Z,96781.04
2022-09-29T11:27:23.874Z,96782.34
2022-09-29T11:30:06.497Z,96783.78
2022-09-29T11:32:51.412Z,96778.40
2022-09-29T11:35:38.839Z,96782.14
2022-09-29T11:38:29.388Z,96780.21
2022-09-29T11:41:15.404Z,96779.61
2022-09-29T11:43:50.385Z,96783.92
2022-09-29T11:46:35.861Z,96777.88
2022-09-29T11:49:24.363Z,96779.59
2022-09-29T11:52:08.740Z,96783.28
2022-09-29T11:54:57.560Z,96782.14
2022-09-29T11:57:46.024Z,96781.20
2022-09-29T12:00:19.808Z,96777.61
2022-09-29T12:03:10.724Z,96774.31
2022-09-29T12:05:55.827Z,96774.41
2022-09-29T12:08:43.113Z,96775.16
2022-09-29T12:11:47.333Z,96772.71
2022-09-29T12:14:19.313Z,96773.21
2022-09-29T12:16:57.353Z,96771.27
2022-09-29T12:19:32.811Z,96769.75
2022-09-29T12:22:08.848Z,96767.45
2022-09-29T12:24:42.320Z,96770.98
2022-09-29T12:27:20.118Z,96774.77
2022-09-29T12:29:57.686Z,96777.57
2022-09-29T12:32:35.290Z,96778.61
2022-09-29T12:35:15.113Z,96784.86
2022-09-29T12:37:53.388Z,96786.52
2022-09-29T12:40:32.954Z,96787.42
2022-09-29T12:43:13.204Z,96782.09
2022-09-29T12:45:52.892Z,96783.77
2022-09-29T12:48:45.531Z,96788.82
2022-09-29T12:51:23.687Z,96788.77
2022-09-29T12:54:10.070Z,96789.00
2022-09-29T12:56:49.830Z,96789.79
2022-09-29T12:59:32.795Z,96788.40
2022-09-29T13:02:29.290Z,96782.39
2022-09-29T13:05:12.382Z,96785.05
2022-09-29T13:08:02.810Z,96785.06
2022-09-29T13:10:50.831Z,96784.94
2022-09-29T13:13:46.975Z,96784.72
2022-09-29T13:16:36.509Z,96783.83
2022-09-29T13:19:56.242Z,96785.77
2022-09-29T13:22:52.188Z,96783.83
2022-09-29T13:25:33.174Z,96789.86
2022-09-29T13:28:11.653Z,96786.94
2022-09-29T13:30:43.318Z,96789.89
2022-09-29T13:33:21.872Z,96790.20
2022-09-29T13:35:54.777Z,96795.18
2022-09-29T13:38:30.131Z,96798.84
2022-09-29T13:41:15.210Z,96804.23
2022-09-29T13:44:05.877Z,96807.52
2022-09-29T13:46:41.799Z,96802.54
2022-09-29T13:49:28.241Z,96805.70
2022-09-29T13:52:03.549Z,96805.48
2022-09-29T13:54:37.412Z,96808.73
2022-09-29T13:57:29.106Z,96811.92
2022-09-29T14:00:24.812Z,96811.85
2022-09-29T14:03:23.537Z,96816.70
2022-09-29T14:06:36.546Z,96824.00
2022-09-29T14:09:09.160Z,96825.49
2022-09-29T14:11:45.463Z,96824.27
2022-09-29T14:14:22.211Z,96825.27
2022-09-29T14:17:01.619Z,96823.53
2022-09-29T14:19:40.924Z,96825.64
2022-09-29T14:22:43.185Z,96831.66
2022-09-29T14:25:49.744Z,96836.55
2022-09-29T14:28:27.913Z,96838.06
2022-09-29T14:31:02.840Z,96843.77
2022-09-29T14:33:41.511Z,96841.46
2022-09-29T14:36:18.900Z,96847.87
2022-09-29T14:39:21.645Z,96853.61
2022-09-29T14:41:48.916Z,96851.85
2022-09-29T14:44:25.245Z,96853.54
2022-09-29T14:47:57.988Z,96854.36
2022-09-29T14:50:54.525Z,96853.55
2022-09-29T14:53:42.859Z,96850.31
2022-09-29T14:56:28.436Z,96851.84
2022-09-29T14:59:16.576Z,96856.33
2022-09-29T15:02:12.059Z,96855.46
2022-09-29T15:04:45.397Z,96861.56
2022-09-29T15:07:20.866Z,96864.73
2022-09-29T15:09:54.220Z,96864.34
2022-09-29T15:12:28.406Z,96870.58
2022-09-29T15:15:01.668Z,96874.07
2022-09-29T15:17:48.882Z,96872.99
2022-09-29T15:20:32.525Z,96873.39
2022-09-29T15:23:33.037Z,96871.13
2022-09-29T15:26:04.587Z,96872.48
2022-09-29T15:28:40.033Z,96876.58
2022-09-29T15:31:17.191Z,96876.11
2022-09-29T15:33:48.915Z,96880.41
2022-09-29T15:36:24.218Z,96881.34
2022-09-29T15:39:00.019Z,96890.98
2022-09-29T15:41:34.217Z,96890.75
2022-09-29T15:44:22.275Z,96893.40
2022-09-29T15:46:58.880Z,96896.52
2022-09-29T15:49:31.403Z,96903.51
2022-09-29T15:52:06.192Z,96906.49
2022-09-29T15:54:44.671Z,96906.88
2022-09-29T15:57:52.894Z,96903.35
2022-09-29T16:00:46.561Z,96903.77
2022-09-29T16:03:27.206Z,96898.21
2022-09-29T16:06:04.978Z,96902.23
2022-09-29T16:08:42.808Z,96898.80
2022-09-29T16:11:22.636Z,96897.56
2022-09-29T16:14:00.149Z,96906.16
2022-09-29T16:16:36.817Z,96903.30
2022-09-29T16:19:17.728Z,96905.30
2022-09-29T16:21:54.363Z,96901.98
2022-09-29T16:24:30.119Z,96904.09
2022-09-29T16:27:02.006Z,96908.27
2022-09-29T16:29:34.600Z,96907.83
2022-09-29T16:32:42.618Z,96910.02
2022-09-29T16:35:42.742Z,96913.95
2022-09-29T16:38:20.145Z,96926.41
2022-09-29T16:40:52.181Z,96928.69
2022-09-29T16:43:27.031Z,96934.27
2022-09-29T16:46:01.964Z,96939.13
2022-09-29T16:48:41.277Z,96943.27
2022-09-29T16:54:18.255Z,96956.48
2022-09-29T16:57:10.189Z,96953.83
2022-09-29T16:59:41.639Z,96960.64
2022-09-29T17:02:12.311Z,96966.06
2022-09-29T17:04:43.996Z,96973.44
2022-09-29T17:07:18.060Z,96974.78
2022-09-29T17:09:54.626Z,96985.33
2022-09-29T17:12:28.514Z,96985.33
2022-09-29T17:15:01.723Z,96981.08
2022-09-29T17:17:35.502Z,96984.56
2022-09-29T17:20:13.413Z,96996.48
2022-09-29T17:22:45.466Z,96994.98
2022-09-29T17:25:17.309Z,96992.13
2022-09-29T17:28:06.587Z,96996.21
2022-09-29T17:30:38.181Z,97005.84
2022-09-29T17:33:12.138Z,97008.88
2022-09-29T17:35:47.627Z,97008.30
2022-09-29T17:38:20.914Z,97008.69
2022-09-29T17:40:57.109Z,97011.55
2022-09-29T17:43:31.459Z,97012.47
2022-09-29T17:46:03.831Z,97008.50
2022-09-29T17:48:36.009Z,97008.93
2022-09-29T17:51:13.167Z,97011.82
2022-09-29T17:53:45.080Z,97019.09
2022-09-29T17:56:25.922Z,97028.48
2022-09-29T17:58:57.732Z,97032.46
2022-09-29T18:01:34.241Z,97032.95
2022-09-29T18:04:07.898Z,97033.73
2022-09-29T18:06:39.946Z,97029.94
2022-09-29T18:09:18.221Z,97035.23
2022-09-29T18:11:49.918Z,97039.56
2022-09-29T18:14:20.063Z,97039.29
2022-09-29T18:16:51.822Z,97034.20
2022-09-29T18:19:23.753Z,97037.63
2022-09-29T18:21:57.455Z,97041.45
2022-09-29T18:24:29.182Z,97041.02
2022-09-29T18:27:01.092Z,97036.14
2022-09-29T18:29:33.759Z,97033.91
2022-09-29T18:32:05.827Z,97034.09
2022-09-29T18:34:37.562Z,97033.98
2022-09-29T18:37:09.409Z,97032.41
2022-09-29T18:39:41.120Z,97028.83
2022-09-29T18:42:13.259Z,97026.45
2022-09-29T18:44:45.841Z,97025.41
2022-09-29T18:47:18.208Z,97026.74
2022-09-29T18:49:51.750Z,97029.67
2022-09-29T18:52:27.532Z,97026.95
2022-09-29T18:55:00.143Z,97030.38
2022-09-29T18:57:32.646Z,97028.96
2022-09-29T19:00:06.382Z,97030.30
2022-09-29T19:02:38.333Z,97035.07
2022-09-29T19:05:16.978Z,97039.41
2022-09-29T19:07:49.692Z,97048.46
2022-09-29T19:10:23.974Z,97055.44
2022-09-29T19:12:58.952Z,97058.33
2022-09-29T19:15:34.559Z,97057.56
2022-09-29T19:18:08.064Z,97056.14
2022-09-29T19:20:40.944Z,97056.44
2022-09-29T19:23:12.628Z,97058.93
2022-09-29T19:25:42.774Z,97056.57
2022-09-29T19:28:15.240Z,97054.79
2022-09-29T19:30:51.482Z,97055.34
2022-09-29T19:33:25.328Z,97058.45
2022-09-29T19:35:57.382Z,97061.58
2022-09-29T19:38:28.960Z,97063.27
2022-09-29T19:40:59.366Z,97065.30
2022-09-29T19:43:31.121Z,97069.70
2022-09-29T19:46:11.263Z,97073.89
2022-09-29T19:48:44.460Z,97071.05
2022-09-29T19:51:35.287Z,97068.98
2022-09-29T19:54:14.495Z,97071.97
2022-09-29T19:56:49.198Z,97072.66
2022-09-29T19:59:22.646Z,97072.87
2022-09-29T20:01:55.138Z,97083.41
2022-09-29T20:04:29.959Z,97087.45
2022-09-29T20:07:02.755Z,97081.89
2022-09-29T20:09:36.545Z,97079.60
2022-09-29T20:12:08.203Z,97079.48
2022-09-29T20:14:39.316Z,97074.01
2022-09-29T20:17:11.370Z,97074.61
2022-09-29T20:19:44.561Z,97075.20
2022-09-29T20:22:16.482Z,97080.09
2022-09-29T20:24:48.054Z,97086.04
2022-09-29T20:27:18.836Z,97100.75
2022-09-29T20:29:51.311Z,97103.43
2022-09-29T20:32:23.502Z,97110.20
2022-09-29T20:34:55.037Z,97107.73
2022-09-29T20:37:25.521Z,97108.64
2022-09-29T20:39:57.822Z,97110.75
2022-09-29T20:42:29.720Z,97116.69
2022-09-29T20:45:01.430Z,97121.15
2022-09-29T20:47:34.987Z,97127.14
2022-09-29T20:50:10.104Z,97130.88
2022-09-29T20:52:42.636Z,97133.31
2022-09-29T20:55:14.517Z,97137.36
2022-09-29T20:57:46.541Z,97145.78
2022-09-29T21:00:18.101Z,97144.71
2022-09-29T21:02:51.567Z,97146.44
2022-09-29T21:05:23.103Z,97144.27
2022-09-29T21:07:55.822Z,97151.74
2022-09-29T21:10:28.137Z,97156.27
2022-09-29T21:13:01.036Z,97154.14
2022-09-29T21:15:35.377Z,97152.73
2022-09-29T21:18:06.857Z,97162.23
2022-09-29T21:20:38.327Z,97169.42
2022-09-29T21:23:09.854Z,97169.54
2022-09-29T21:25:41.353Z,97171.85
2022-09-29T21:28:12.864Z,97170.41
2022-09-29T21:30:44.415Z,97170.88
2022-09-29T21:33:14.422Z,97173.92
2022-09-29T21:35:45.875Z,97177.30
2022-09-29T21:38:17.330Z,97179.64
2022-09-29T21:40:48.789Z,97183.52
2022-09-29T21:43:20.253Z,97187.16
2022-09-29T21:45:51.765Z,97188.33
2022-09-29T21:48:23.525Z,97181.69
2022-09-29T21:51:01.279Z,97186.98
2022-09-29T21:53:33.960Z,97186.74
2022-09-29T21:56:09.838Z,97182.66
2022-09-29T21:58:42.244Z,97182.27
2022-09-29T22:01:14.554Z,97175.11
2022-09-29T22:03:48.273Z,97169.73
2022-09-29T22:06:21.536Z,97177.74
2022-09-29T22:08:53.509Z,97179.52
2022-09-29T22:11:27.643Z,97178.02
2022-09-29T22:14:01.596Z,97180.63
2022-09-29T22:16:35.178Z,97175.05
2022-09-29T22:19:24.186Z,97175.87
2022-09-29T22:21:56.522Z,97170.77
2022-09-29T22:24:28.436Z,97173.08
2022-09-29T22:27:00.039Z,97180.61
2022-09-29T22:29:32.195Z,97183.81
2022-09-29T22:32:05.559Z,97185.54
2022-09-29T22:34:36.994Z,97181.27
2022-09-29T22:37:08.526Z,97180.64
2022-09-29T22:39:39.022Z,97183.40
2022-09-29T22:42:10.511Z,97188.95
2022-09-29T22:44:41.956Z,97194.39
2022-09-29T22:47:13.545Z,97188.30
2022-09-29T22:49:45.030Z,97187.77
2022-09-29T22:52:16.490Z,97185.66
2022-09-29T22:54:47.975Z,97190.75
2022-09-29T22:57:19.428Z,97187.06
2022-09-29T22:59:50.887Z,97183.48
2022-09-29T23:02:22.332Z,97177.86
2022-09-29T23:04:53.835Z,97176.39
2022-09-29T23:07:25.406Z,97179.99
2022-09-29T23:09:55.427Z,97188.34
2022-09-29T23:12:28.656Z,97189.73
2022-09-29T23:15:00.673Z,97185.39
2022-09-29T23:17:33.049Z,97187.95
2022-09-29T23:20:05.582Z,97191.06
2022-09-29T23:22:37.155Z,97191.98
2022-09-29T23:25:11.174Z,97196.31
2022-09-29T23:27:42.616Z,97198.63
2022-09-29T23:30:14.687Z,97192.77
2022-09-29T23:32:46.221Z,97192.10
2022-09-29T23:35:17.937Z,97193.89
2022-09-29T23:38:06.966Z,97193.13
2022-09-29T23:40:38.532Z,97190.09
2022-09-29T23:43:10.022Z,97189.52
2022-09-29T23:45:41.487Z,97187.43
2022-09-29T23:48:14.264Z,97183.42
2022-09-29T23:50:46.645Z,97180.48
2022-09-29T23:53:18.192Z,97188.73
2022-09-29T23:55:49.889Z,97188.08
2022-09-29T23:58:21.370Z,97190.06
